Terminal Aerodrome Forecast
Issued by NWS

Home | Current Version | Previous Version | Text Only | Print | Product List | Glossary On
Versions: 1 2 3 4 5 6 7 8 9 10 11 12 13 14 15 16 17 18 19 20
000
FTUS43 KMKX 100913 AAA
TAFUES
TAF AMD
KUES 100913Z 1009/1106 26007KT 5SM -SN SCT017 BKN030 OVC045
     FM101100 26005KT P6SM FEW035 BKN080
     FM102300 VRB03KT P6SM -SN OVC035
     FM110200 VRB03KT 2SM -SN OVC025
     FM110500 VRB03KT 1 1/2SM -SN SCT007 OVC015=

USA.gov is the U.S. government's official web portal to all federal, state and local government web resources and services.